sensor_id;sensor_type;location;lat;lon;timestamp;P1;durP1;ratioP1;P2;durP2;ratioP2
5173;SDS011;2606;50.934;6.934;2022-08-19T00:01:56;11.53;;;5.70;;
5173;SDS011;2606;50.934;6.934;2022-08-19T00:04:24;9.40;;;7.10;;
5173;SDS011;2606;50.934;6.934;2022-08-19T00:06:52;7.50;;;5.93;;
5173;SDS011;2606;50.934;6.934;2022-08-19T00:09:19;9.33;;;6.57;;
5173;SDS011;2606;50.934;6.934;2022-08-19T00:11:46;11.53;;;6.93;;
5173;SDS011;2606;50.934;6.934;2022-08-19T00:14:12;10.10;;;6.10;;
5173;SDS011;2606;50.934;6.934;2022-08-19T00:16:40;11.00;;;7.07;;
5173;SDS011;2606;50.934;6.934;2022-08-19T00:19:09;9.90;;;7.07;;
5173;SDS011;2606;50.934;6.934;2022-08-19T00:21:35;16.73;;;11.73;;
5173;SDS011;2606;50.934;6.934;2022-08-19T00:24:05;26.30;;;17.73;;
5173;SDS011;2606;50.934;6.934;2022-08-19T00:26:35;32.80;;;18.03;;
5173;SDS011;2606;50.934;6.934;2022-08-19T00:29:02;15.10;;;8.30;;
5173;SDS011;2606;50.934;6.934;2022-08-19T00:31:29;10.80;;;6.90;;
5173;SDS011;2606;50.934;6.934;2022-08-19T00:33:56;9.47;;;7.27;;
5173;SDS011;2606;50.934;6.934;2022-08-19T00:36:22;11.33;;;7.00;;
5173;SDS011;2606;50.934;6.934;2022-08-19T00:38:47;10.30;;;6.70;;
5173;SDS011;2606;50.934;6.934;2022-08-19T00:41:15;8.37;;;6.13;;
5173;SDS011;2606;50.934;6.934;2022-08-19T00:43:43;7.93;;;6.77;;
5173;SDS011;2606;50.934;6.934;2022-08-19T00:46:20;8.10;;;6.47;;
5173;SDS011;2606;50.934;6.934;2022-08-19T00:48:46;11.80;;;6.67;;
5173;SDS011;2606;50.934;6.934;2022-08-19T00:51:11;10.80;;;6.60;;
5173;SDS011;2606;50.934;6.934;2022-08-19T00:53:37;8.90;;;6.70;;
5173;SDS011;2606;50.934;6.934;2022-08-19T00:56:04;8.77;;;6.90;;
5173;SDS011;2606;50.934;6.934;2022-08-19T00:58:33;10.97;;;7.80;;
5173;SDS011;2606;50.934;6.934;2022-08-19T01:01:00;13.10;;;7.40;;
5173;SDS011;2606;50.934;6.934;2022-08-19T01:03:27;11.70;;;8.00;;
5173;SDS011;2606;50.934;6.934;2022-08-19T01:05:53;15.77;;;8.10;;
5173;SDS011;2606;50.934;6.934;2022-08-19T01:08:20;11.80;;;8.73;;
5173;SDS011;2606;50.934;6.934;2022-08-19T01:10:48;11.60;;;7.43;;
5173;SDS011;2606;50.934;6.934;2022-08-19T01:13:20;8.97;;;7.37;;
5173;SDS011;2606;50.934;6.934;2022-08-19T01:15:51;10.90;;;7.20;;
5173;SDS011;2606;50.934;6.934;2022-08-19T01:18:20;9.97;;;8.03;;
5173;SDS011;2606;50.934;6.934;2022-08-19T01:20:46;13.20;;;7.60;;
5173;SDS011;2606;50.934;6.934;2022-08-19T01:23:13;10.20;;;7.20;;
5173;SDS011;2606;50.934;6.934;2022-08-19T01:25:50;9.37;;;7.23;;
5173;SDS011;2606;50.934;6.934;2022-08-19T01:28:21;8.87;;;7.23;;
5173;SDS011;2606;50.934;6.934;2022-08-19T01:30:50;9.27;;;7.70;;
5173;SDS011;2606;50.934;6.934;2022-08-19T01:33:17;11.03;;;7.70;;
5173;SDS011;2606;50.934;6.934;2022-08-19T01:35:44;9.00;;;6.90;;
5173;SDS011;2606;50.934;6.934;2022-08-19T01:38:19;9.70;;;7.17;;
5173;SDS011;2606;50.934;6.934;2022-08-19T01:40:50;12.33;;;8.57;;
5173;SDS011;2606;50.934;6.934;2022-08-19T01:43:16;15.03;;;7.97;;
5173;SDS011;2606;50.934;6.934;2022-08-19T01:45:43;10.00;;;8.40;;
5173;SDS011;2606;50.934;6.934;2022-08-19T01:48:11;12.20;;;8.20;;
5173;SDS011;2606;50.934;6.934;2022-08-19T01:50:37;10.77;;;8.10;;
5173;SDS011;2606;50.934;6.934;2022-08-19T01:53:06;14.80;;;8.13;;
5173;SDS011;2606;50.934;6.934;2022-08-19T01:55:35;11.60;;;7.80;;
5173;SDS011;2606;50.934;6.934;2022-08-19T01:58:02;10.40;;;7.20;;
5173;SDS011;2606;50.934;6.934;2022-08-19T02:00:30;9.60;;;7.77;;
5173;SDS011;2606;50.934;6.934;2022-08-19T02:02:57;11.40;;;8.17;;
5173;SDS011;2606;50.934;6.934;2022-08-19T02:05:23;11.10;;;8.13;;
5173;SDS011;2606;50.934;6.934;2022-08-19T02:07:48;9.70;;;7.67;;
5173;SDS011;2606;50.934;6.934;2022-08-19T02:10:16;10.20;;;7.27;;
5173;SDS011;2606;50.934;6.934;2022-08-19T02:12:44;13.67;;;7.90;;
5173;SDS011;2606;50.934;6.934;2022-08-19T02:15:10;10.40;;;7.50;;
5173;SDS011;2606;50.934;6.934;2022-08-19T02:17:36;11.33;;;8.00;;
5173;SDS011;2606;50.934;6.934;2022-08-19T02:20:02;9.67;;;7.63;;
5173;SDS011;2606;50.934;6.934;2022-08-19T02:22:28;16.40;;;8.20;;
5173;SDS011;2606;50.934;6.934;2022-08-19T02:24:54;9.73;;;6.67;;
5173;SDS011;2606;50.934;6.934;2022-08-19T02:27:21;13.60;;;8.40;;
5173;SDS011;2606;50.934;6.934;2022-08-19T02:29:47;13.00;;;8.53;;
5173;SDS011;2606;50.934;6.934;2022-08-19T02:32:14;19.90;;;8.60;;
5173;SDS011;2606;50.934;6.934;2022-08-19T02:34:40;14.80;;;9.07;;
5173;SDS011;2606;50.934;6.934;2022-08-19T02:37:07;14.70;;;9.03;;
5173;SDS011;2606;50.934;6.934;2022-08-19T02:39:52;13.90;;;8.37;;
5173;SDS011;2606;50.934;6.934;2022-08-19T02:42:18;14.70;;;8.87;;
5173;SDS011;2606;50.934;6.934;2022-08-19T02:44:44;11.00;;;7.93;;
5173;SDS011;2606;50.934;6.934;2022-08-19T02:47:09;11.73;;;7.23;;
5173;SDS011;2606;50.934;6.934;2022-08-19T02:49:35;13.53;;;7.77;;
5173;SDS011;2606;50.934;6.934;2022-08-19T02:52:01;14.90;;;8.70;;
5173;SDS011;2606;50.934;6.934;2022-08-19T02:54:27;11.17;;;7.43;;
5173;SDS011;2606;50.934;6.934;2022-08-19T02:56:53;11.20;;;8.50;;
5173;SDS011;2606;50.934;6.934;2022-08-19T02:59:19;11.20;;;8.90;;
5173;SDS011;2606;50.934;6.934;2022-08-19T03:01:45;14.60;;;9.40;;
5173;SDS011;2606;50.934;6.934;2022-08-19T03:04:12;21.43;;;9.10;;
5173;SDS011;2606;50.934;6.934;2022-08-19T03:06:40;14.20;;;9.73;;
5173;SDS011;2606;50.934;6.934;2022-08-19T03:09:08;13.93;;;9.63;;
5173;SDS011;2606;50.934;6.934;2022-08-19T03:11:35;12.87;;;8.70;;
5173;SDS011;2606;50.934;6.934;2022-08-19T03:14:01;12.37;;;8.47;;
5173;SDS011;2606;50.934;6.934;2022-08-19T03:16:29;10.17;;;7.90;;
5173;SDS011;2606;50.934;6.934;2022-08-19T03:18:57;15.37;;;7.83;;
5173;SDS011;2606;50.934;6.934;2022-08-19T03:21:26;11.90;;;8.47;;
5173;SDS011;2606;50.934;6.934;2022-08-19T03:23:56;15.77;;;8.63;;
5173;SDS011;2606;50.934;6.934;2022-08-19T03:26:24;16.07;;;8.50;;
5173;SDS011;2606;50.934;6.934;2022-08-19T03:28:50;12.90;;;8.73;;
5173;SDS011;2606;50.934;6.934;2022-08-19T03:31:17;13.60;;;8.30;;
5173;SDS011;2606;50.934;6.934;2022-08-19T03:33:45;12.27;;;8.70;;
5173;SDS011;2606;50.934;6.934;2022-08-19T03:36:12;15.07;;;9.47;;
5173;SDS011;2606;50.934;6.934;2022-08-19T03:38:43;13.30;;;8.67;;
5173;SDS011;2606;50.934;6.934;2022-08-19T03:41:13;14.47;;;9.20;;
5173;SDS011;2606;50.934;6.934;2022-08-19T03:43:41;15.53;;;9.47;;
5173;SDS011;2606;50.934;6.934;2022-08-19T03:46:08;17.10;;;9.37;;
5173;SDS011;2606;50.934;6.934;2022-08-19T03:48:37;11.73;;;8.77;;
5173;SDS011;2606;50.934;6.934;2022-08-19T03:51:05;16.83;;;9.37;;
5173;SDS011;2606;50.934;6.934;2022-08-19T03:53:32;15.27;;;10.00;;
5173;SDS011;2606;50.934;6.934;2022-08-19T03:55:59;16.97;;;10.20;;
5173;SDS011;2606;50.934;6.934;2022-08-19T03:58:26;15.60;;;10.47;;
5173;SDS011;2606;50.934;6.934;2022-08-19T04:00:54;16.67;;;10.37;;
5173;SDS011;2606;50.934;6.934;2022-08-19T04:03:26;14.87;;;10.20;;
5173;SDS011;2606;50.934;6.934;2022-08-19T04:05:52;14.70;;;10.57;;
5173;SDS011;2606;50.934;6.934;2022-08-19T04:08:18;23.07;;;13.17;;
5173;SDS011;2606;50.934;6.934;2022-08-19T04:10:47;16.90;;;11.40;;
5173;SDS011;2606;50.934;6.934;2022-08-19T04:13:14;16.03;;;11.70;;
5173;SDS011;2606;50.934;6.934;2022-08-19T04:15:44;21.97;;;12.43;;
5173;SDS011;2606;50.934;6.934;2022-08-19T04:18:11;18.40;;;11.20;;
5173;SDS011;2606;50.934;6.934;2022-08-19T04:20:42;22.00;;;13.90;;
5173;SDS011;2606;50.934;6.934;2022-08-19T04:23:09;19.73;;;13.00;;
5173;SDS011;2606;50.934;6.934;2022-08-19T04:25:36;20.17;;;12.50;;
5173;SDS011;2606;50.934;6.934;2022-08-19T04:28:06;21.03;;;13.10;;
5173;SDS011;2606;50.934;6.934;2022-08-19T04:30:37;21.27;;;13.87;;
5173;SDS011;2606;50.934;6.934;2022-08-19T04:33:07;25.30;;;13.90;;
5173;SDS011;2606;50.934;6.934;2022-08-19T04:35:37;26.40;;;15.07;;
5173;SDS011;2606;50.934;6.934;2022-08-19T04:38:04;30.10;;;17.50;;
5173;SDS011;2606;50.934;6.934;2022-08-19T04:40:31;28.83;;;17.50;;
5173;SDS011;2606;50.934;6.934;2022-08-19T04:43:15;24.27;;;15.77;;
5173;SDS011;2606;50.934;6.934;2022-08-19T04:45:44;26.37;;;16.57;;
5173;SDS011;2606;50.934;6.934;2022-08-19T04:48:10;23.10;;;15.23;;
5173;SDS011;2606;50.934;6.934;2022-08-19T04:50:39;29.10;;;16.40;;
5173;SDS011;2606;50.934;6.934;2022-08-19T04:53:06;23.67;;;14.63;;
5173;SDS011;2606;50.934;6.934;2022-08-19T04:55:32;26.97;;;15.07;;
5173;SDS011;2606;50.934;6.934;2022-08-19T04:57:58;25.10;;;15.80;;
5173;SDS011;2606;50.934;6.934;2022-08-19T05:00:24;24.57;;;15.13;;
5173;SDS011;2606;50.934;6.934;2022-08-19T05:02:50;20.33;;;13.43;;
5173;SDS011;2606;50.934;6.934;2022-08-19T05:05:15;27.60;;;15.33;;
5173;SDS011;2606;50.934;6.934;2022-08-19T05:07:42;29.37;;;14.90;;
5173;SDS011;2606;50.934;6.934;2022-08-19T05:10:07;28.10;;;17.60;;
5173;SDS011;2606;50.934;6.934;2022-08-19T05:12:33;27.83;;;19.30;;
5173;SDS011;2606;50.934;6.934;2022-08-19T05:14:59;29.67;;;18.03;;
5173;SDS011;2606;50.934;6.934;2022-08-19T05:17:26;33.80;;;21.07;;
5173;SDS011;2606;50.934;6.934;2022-08-19T05:19:51;32.43;;;19.97;;
5173;SDS011;2606;50.934;6.934;2022-08-19T05:22:36;30.20;;;20.33;;
5173;SDS011;2606;50.934;6.934;2022-08-19T05:25:06;33.10;;;20.53;;
5173;SDS011;2606;50.934;6.934;2022-08-19T05:27:34;37.63;;;21.50;;
5173;SDS011;2606;50.934;6.934;2022-08-19T05:30:00;36.10;;;19.80;;
5173;SDS011;2606;50.934;6.934;2022-08-19T05:32:26;35.57;;;20.40;;
5173;SDS011;2606;50.934;6.934;2022-08-19T05:34:52;32.20;;;20.50;;
5173;SDS011;2606;50.934;6.934;2022-08-19T05:37:18;38.90;;;20.70;;
5173;SDS011;2606;50.934;6.934;2022-08-19T05:39:44;36.37;;;22.07;;
5173;SDS011;2606;50.934;6.934;2022-08-19T05:42:10;35.37;;;22.50;;
5173;SDS011;2606;50.934;6.934;2022-08-19T05:44:37;32.73;;;20.43;;
5173;SDS011;2606;50.934;6.934;2022-08-19T05:47:06;39.93;;;26.13;;
5173;SDS011;2606;50.934;6.934;2022-08-19T05:49:33;35.70;;;21.43;;
5173;SDS011;2606;50.934;6.934;2022-08-19T05:52:02;35.40;;;21.80;;
5173;SDS011;2606;50.934;6.934;2022-08-19T05:54:33;33.37;;;21.80;;
5173;SDS011;2606;50.934;6.934;2022-08-19T05:57:01;36.10;;;20.50;;
5173;SDS011;2606;50.934;6.934;2022-08-19T05:59:27;36.73;;;22.90;;
5173;SDS011;2606;50.934;6.934;2022-08-19T06:01:53;33.17;;;21.73;;
5173;SDS011;2606;50.934;6.934;2022-08-19T06:04:21;33.50;;;21.87;;
5173;SDS011;2606;50.934;6.934;2022-08-19T06:06:47;33.37;;;20.83;;
5173;SDS011;2606;50.934;6.934;2022-08-19T06:09:15;36.57;;;20.97;;
5173;SDS011;2606;50.934;6.934;2022-08-19T06:11:42;32.03;;;21.50;;
5173;SDS011;2606;50.934;6.934;2022-08-19T06:14:21;37.00;;;22.20;;
5173;SDS011;2606;50.934;6.934;2022-08-19T06:16:48;36.67;;;21.77;;
5173;SDS011;2606;50.934;6.934;2022-08-19T06:19:17;31.03;;;20.13;;
5173;SDS011;2606;50.934;6.934;2022-08-19T06:21:45;33.33;;;21.03;;
5173;SDS011;2606;50.934;6.934;2022-08-19T06:24:13;39.10;;;22.50;;
5173;SDS011;2606;50.934;6.934;2022-08-19T06:26:41;37.73;;;21.80;;
5173;SDS011;2606;50.934;6.934;2022-08-19T06:29:10;34.70;;;23.33;;
5173;SDS011;2606;50.934;6.934;2022-08-19T06:31:40;36.17;;;21.20;;
5173;SDS011;2606;50.934;6.934;2022-08-19T06:34:07;39.60;;;21.50;;
5173;SDS011;2606;50.934;6.934;2022-08-19T06:36:34;37.50;;;22.17;;
5173;SDS011;2606;50.934;6.934;2022-08-19T06:39:06;37.40;;;22.77;;
5173;SDS011;2606;50.934;6.934;2022-08-19T06:41:41;35.00;;;21.27;;
5173;SDS011;2606;50.934;6.934;2022-08-19T06:44:09;35.47;;;20.87;;
5173;SDS011;2606;50.934;6.934;2022-08-19T06:46:36;39.80;;;25.07;;
5173;SDS011;2606;50.934;6.934;2022-08-19T06:49:02;33.87;;;22.30;;
5173;SDS011;2606;50.934;6.934;2022-08-19T06:51:28;35.40;;;20.47;;
5173;SDS011;2606;50.934;6.934;2022-08-19T06:53:56;34.47;;;21.20;;
5173;SDS011;2606;50.934;6.934;2022-08-19T06:56:23;33.67;;;19.37;;
5173;SDS011;2606;50.934;6.934;2022-08-19T06:58:56;39.53;;;22.03;;
5173;SDS011;2606;50.934;6.934;2022-08-19T07:01:22;41.53;;;25.00;;
5173;SDS011;2606;50.934;6.934;2022-08-19T07:03:48;32.10;;;20.70;;
5173;SDS011;2606;50.934;6.934;2022-08-19T07:06:15;48.70;;;21.87;;
5173;SDS011;2606;50.934;6.934;2022-08-19T07:08:43;33.27;;;21.93;;
5173;SDS011;2606;50.934;6.934;2022-08-19T07:11:10;39.07;;;22.87;;
5173;SDS011;2606;50.934;6.934;2022-08-19T07:13:39;39.27;;;22.73;;
5173;SDS011;2606;50.934;6.934;2022-08-19T07:16:09;34.53;;;21.77;;
5173;SDS011;2606;50.934;6.934;2022-08-19T07:18:36;33.37;;;19.97;;
5173;SDS011;2606;50.934;6.934;2022-08-19T07:21:04;31.30;;;18.93;;
5173;SDS011;2606;50.934;6.934;2022-08-19T07:23:31;26.97;;;17.40;;
5173;SDS011;2606;50.934;6.934;2022-08-19T07:25:57;36.60;;;20.57;;
5173;SDS011;2606;50.934;6.934;2022-08-19T07:28:22;37.50;;;19.40;;
5173;SDS011;2606;50.934;6.934;2022-08-19T07:30:48;38.50;;;23.67;;
5173;SDS011;2606;50.934;6.934;2022-08-19T07:33:15;35.73;;;22.43;;
5173;SDS011;2606;50.934;6.934;2022-08-19T07:35:41;42.70;;;21.40;;
5173;SDS011;2606;50.934;6.934;2022-08-19T07:38:07;33.60;;;20.13;;
5173;SDS011;2606;50.934;6.934;2022-08-19T07:40:32;42.17;;;23.03;;
5173;SDS011;2606;50.934;6.934;2022-08-19T07:42:58;63.07;;;33.17;;
5173;SDS011;2606;50.934;6.934;2022-08-19T07:45:24;86.83;;;39.03;;
5173;SDS011;2606;50.934;6.934;2022-08-19T07:47:50;55.70;;;29.60;;
5173;SDS011;2606;50.934;6.934;2022-08-19T07:50:16;39.17;;;23.30;;
5173;SDS011;2606;50.934;6.934;2022-08-19T07:52:44;36.43;;;22.00;;
5173;SDS011;2606;50.934;6.934;2022-08-19T07:55:10;39.73;;;23.00;;
5173;SDS011;2606;50.934;6.934;2022-08-19T07:57:36;37.27;;;21.93;;
5173;SDS011;2606;50.934;6.934;2022-08-19T08:00:02;46.37;;;26.93;;
5173;SDS011;2606;50.934;6.934;2022-08-19T08:02:29;47.63;;;27.70;;
5173;SDS011;2606;50.934;6.934;2022-08-19T08:04:55;41.27;;;22.60;;
5173;SDS011;2606;50.934;6.934;2022-08-19T08:07:39;42.13;;;21.83;;
5173;SDS011;2606;50.934;6.934;2022-08-19T08:10:23;39.03;;;22.80;;
5173;SDS011;2606;50.934;6.934;2022-08-19T08:12:49;38.50;;;22.47;;
5173;SDS011;2606;50.934;6.934;2022-08-19T08:15:15;42.10;;;23.53;;
5173;SDS011;2606;50.934;6.934;2022-08-19T08:17:44;42.87;;;23.00;;
5173;SDS011;2606;50.934;6.934;2022-08-19T08:20:11;43.40;;;22.80;;
5173;SDS011;2606;50.934;6.934;2022-08-19T08:22:42;45.00;;;26.63;;
5173;SDS011;2606;50.934;6.934;2022-08-19T08:25:27;88.07;;;44.93;;
5173;SDS011;2606;50.934;6.934;2022-08-19T08:27:52;67.40;;;36.37;;
5173;SDS011;2606;50.934;6.934;2022-08-19T08:30:20;71.67;;;31.20;;
5173;SDS011;2606;50.934;6.934;2022-08-19T08:32:48;50.20;;;26.53;;
5173;SDS011;2606;50.934;6.934;2022-08-19T08:35:16;59.43;;;29.97;;
5173;SDS011;2606;50.934;6.934;2022-08-19T08:37:43;61.37;;;33.80;;
5173;SDS011;2606;50.934;6.934;2022-08-19T08:40:18;42.40;;;24.27;;
5173;SDS011;2606;50.934;6.934;2022-08-19T08:42:55;66.10;;;34.80;;
5173;SDS011;2606;50.934;6.934;2022-08-19T08:45:30;52.43;;;26.80;;
5173;SDS011;2606;50.934;6.934;2022-08-19T08:47:58;51.37;;;25.50;;
5173;SDS011;2606;50.934;6.934;2022-08-19T08:50:32;58.97;;;32.05;;
5173;SDS011;2606;50.934;6.934;2022-08-19T08:53:03;62.13;;;31.60;;
5173;SDS011;2606;50.934;6.934;2022-08-19T08:55:32;52.83;;;27.00;;
5173;SDS011;2606;50.934;6.934;2022-08-19T08:58:00;55.17;;;30.27;;
5173;SDS011;2606;50.934;6.934;2022-08-19T09:00:32;65.23;;;32.67;;
5173;SDS011;2606;50.934;6.934;2022-08-19T09:03:02;55.20;;;28.57;;
5173;SDS011;2606;50.934;6.934;2022-08-19T09:06:04;59.43;;;30.00;;
5173;SDS011;2606;50.934;6.934;2022-08-19T09:11:03;45.40;;;25.77;;
5173;SDS011;2606;50.934;6.934;2022-08-19T09:16:26;41.10;;;20.30;;
5173;SDS011;2606;50.934;6.934;2022-08-19T09:18:53;35.63;;;20.20;;
5173;SDS011;2606;50.934;6.934;2022-08-19T09:21:22;39.20;;;21.87;;
5173;SDS011;2606;50.934;6.934;2022-08-19T09:23:50;37.30;;;21.33;;
5173;SDS011;2606;50.934;6.934;2022-08-19T09:26:18;35.03;;;19.07;;
5173;SDS011;2606;50.934;6.934;2022-08-19T09:28:46;41.03;;;19.77;;
5173;SDS011;2606;50.934;6.934;2022-08-19T09:31:15;40.03;;;24.40;;
5173;SDS011;2606;50.934;6.934;2022-08-19T09:33:45;44.50;;;25.30;;
5173;SDS011;2606;50.934;6.934;2022-08-19T09:36:12;47.30;;;26.33;;
5173;SDS011;2606;50.934;6.934;2022-08-19T09:38:40;34.73;;;20.87;;
5173;SDS011;2606;50.934;6.934;2022-08-19T09:41:07;34.20;;;18.77;;
5173;SDS011;2606;50.934;6.934;2022-08-19T09:43:37;33.70;;;20.07;;
5173;SDS011;2606;50.934;6.934;2022-08-19T09:46:03;45.57;;;26.63;;
5173;SDS011;2606;50.934;6.934;2022-08-19T09:48:31;41.50;;;23.77;;
5173;SDS011;2606;50.934;6.934;2022-08-19T09:51:04;49.73;;;23.47;;
5173;SDS011;2606;50.934;6.934;2022-08-19T09:53:35;34.57;;;19.80;;
5173;SDS011;2606;50.934;6.934;2022-08-19T09:56:01;29.20;;;16.37;;
5173;SDS011;2606;50.934;6.934;2022-08-19T09:58:28;28.70;;;16.50;;
5173;SDS011;2606;50.934;6.934;2022-08-19T10:00:55;31.13;;;16.00;;
5173;SDS011;2606;50.934;6.934;2022-08-19T10:03:22;29.50;;;17.17;;
5173;SDS011;2606;50.934;6.934;2022-08-19T10:05:48;24.50;;;13.43;;
5173;SDS011;2606;50.934;6.934;2022-08-19T10:08:24;29.83;;;19.10;;
5173;SDS011;2606;50.934;6.934;2022-08-19T10:10:53;23.50;;;15.20;;
5173;SDS011;2606;50.934;6.934;2022-08-19T10:13:20;20.70;;;13.00;;
5173;SDS011;2606;50.934;6.934;2022-08-19T10:15:54;17.00;;;11.80;;
5173;SDS011;2606;50.934;6.934;2022-08-19T10:18:23;23.73;;;13.50;;
5173;SDS011;2606;50.934;6.934;2022-08-19T10:20:49;19.30;;;12.20;;
5173;SDS011;2606;50.934;6.934;2022-08-19T10:23:16;20.43;;;13.43;;
5173;SDS011;2606;50.934;6.934;2022-08-19T10:25:42;17.53;;;11.77;;
5173;SDS011;2606;50.934;6.934;2022-08-19T10:28:08;18.63;;;11.90;;
5173;SDS011;2606;50.934;6.934;2022-08-19T10:30:36;41.40;;;26.00;;
5173;SDS011;2606;50.934;6.934;2022-08-19T10:33:03;39.57;;;22.30;;
5173;SDS011;2606;50.934;6.934;2022-08-19T10:35:29;29.07;;;16.43;;
5173;SDS011;2606;50.934;6.934;2022-08-19T10:37:55;56.83;;;33.67;;
5173;SDS011;2606;50.934;6.934;2022-08-19T10:40:29;16.57;;;12.27;;
5173;SDS011;2606;50.934;6.934;2022-08-19T10:42:55;43.33;;;25.53;;
5173;SDS011;2606;50.934;6.934;2022-08-19T10:45:22;24.27;;;15.97;;
5173;SDS011;2606;50.934;6.934;2022-08-19T10:47:54;38.43;;;23.87;;
5173;SDS011;2606;50.934;6.934;2022-08-19T10:50:20;19.80;;;12.77;;
5173;SDS011;2606;50.934;6.934;2022-08-19T10:53:05;49.77;;;28.27;;
5173;SDS011;2606;50.934;6.934;2022-08-19T10:55:37;32.17;;;19.70;;
5173;SDS011;2606;50.934;6.934;2022-08-19T10:58:24;97.20;;;54.53;;
5173;SDS011;2606;50.934;6.934;2022-08-19T11:00:51;19.90;;;12.43;;
5173;SDS011;2606;50.934;6.934;2022-08-19T11:03:19;31.37;;;18.10;;
5173;SDS011;2606;50.934;6.934;2022-08-19T11:05:45;90.97;;;49.17;;
5173;SDS011;2606;50.934;6.934;2022-08-19T11:08:10;30.00;;;19.70;;
5173;SDS011;2606;50.934;6.934;2022-08-19T11:10:37;71.80;;;41.40;;
5173;SDS011;2606;50.934;6.934;2022-08-19T11:13:06;34.13;;;20.67;;
5173;SDS011;2606;50.934;6.934;2022-08-19T11:15:32;25.50;;;17.27;;
5173;SDS011;2606;50.934;6.934;2022-08-19T11:17:58;21.27;;;13.20;;
5173;SDS011;2606;50.934;6.934;2022-08-19T11:20:23;37.83;;;23.03;;
5173;SDS011;2606;50.934;6.934;2022-08-19T11:22:51;16.63;;;11.73;;
5173;SDS011;2606;50.934;6.934;2022-08-19T11:25:18;33.60;;;21.13;;
5173;SDS011;2606;50.934;6.934;2022-08-19T11:27:44;20.07;;;13.67;;
5173;SDS011;2606;50.934;6.934;2022-08-19T11:30:11;18.27;;;13.03;;
5173;SDS011;2606;50.934;6.934;2022-08-19T11:32:38;15.03;;;9.90;;
5173;SDS011;2606;50.934;6.934;2022-08-19T11:35:07;13.47;;;11.00;;
5173;SDS011;2606;50.934;6.934;2022-08-19T11:37:33;13.33;;;9.60;;
5173;SDS011;2606;50.934;6.934;2022-08-19T11:40:02;13.50;;;10.40;;
5173;SDS011;2606;50.934;6.934;2022-08-19T11:42:29;13.37;;;8.70;;
5173;SDS011;2606;50.934;6.934;2022-08-19T11:45:13;11.17;;;9.30;;
5173;SDS011;2606;50.934;6.934;2022-08-19T11:47:39;12.67;;;9.20;;
5173;SDS011;2606;50.934;6.934;2022-08-19T11:50:04;20.57;;;8.43;;
5173;SDS011;2606;50.934;6.934;2022-08-19T11:52:30;11.73;;;8.13;;
5173;SDS011;2606;50.934;6.934;2022-08-19T11:54:56;10.83;;;9.00;;
5173;SDS011;2606;50.934;6.934;2022-08-19T11:57:22;9.43;;;8.20;;
5173;SDS011;2606;50.934;6.934;2022-08-19T11:59:48;12.23;;;9.07;;
5173;SDS011;2606;50.934;6.934;2022-08-19T12:02:15;9.03;;;7.80;;
5173;SDS011;2606;50.934;6.934;2022-08-19T12:04:40;14.13;;;8.97;;
5173;SDS011;2606;50.934;6.934;2022-08-19T12:07:06;13.97;;;8.27;;
5173;SDS011;2606;50.934;6.934;2022-08-19T12:09:31;11.37;;;7.70;;
5173;SDS011;2606;50.934;6.934;2022-08-19T12:11:59;9.13;;;6.73;;
5173;SDS011;2606;50.934;6.934;2022-08-19T12:14:26;174.90;;;105.80;;
5173;SDS011;2606;50.934;6.934;2022-08-19T12:16:52;11.30;;;7.73;;
5173;SDS011;2606;50.934;6.934;2022-08-19T12:19:18;9.97;;;7.40;;
5173;SDS011;2606;50.934;6.934;2022-08-19T12:21:44;9.70;;;6.93;;
5173;SDS011;2606;50.934;6.934;2022-08-19T12:24:10;8.43;;;6.90;;
5173;SDS011;2606;50.934;6.934;2022-08-19T12:26:36;10.00;;;6.93;;
5173;SDS011;2606;50.934;6.934;2022-08-19T12:29:02;10.70;;;6.70;;
5173;SDS011;2606;50.934;6.934;2022-08-19T12:31:28;7.87;;;6.50;;
5173;SDS011;2606;50.934;6.934;2022-08-19T12:33:54;10.83;;;6.60;;
5173;SDS011;2606;50.934;6.934;2022-08-19T12:36:19;9.80;;;7.57;;
5173;SDS011;2606;50.934;6.934;2022-08-19T12:38:46;11.57;;;6.50;;
5173;SDS011;2606;50.934;6.934;2022-08-19T12:41:13;9.00;;;6.87;;
5173;SDS011;2606;50.934;6.934;2022-08-19T12:43:42;13.50;;;7.37;;
5173;SDS011;2606;50.934;6.934;2022-08-19T12:46:08;7.60;;;6.40;;
5173;SDS011;2606;50.934;6.934;2022-08-19T12:48:35;17.37;;;7.47;;
5173;SDS011;2606;50.934;6.934;2022-08-19T12:51:05;10.17;;;7.10;;
5173;SDS011;2606;50.934;6.934;2022-08-19T12:53:32;7.93;;;6.30;;
5173;SDS011;2606;50.934;6.934;2022-08-19T12:55:58;8.60;;;6.50;;
5173;SDS011;2606;50.934;6.934;2022-08-19T12:58:24;7.60;;;6.53;;
5173;SDS011;2606;50.934;6.934;2022-08-19T13:00:51;8.30;;;6.40;;
5173;SDS011;2606;50.934;6.934;2022-08-19T13:03:17;7.40;;;5.87;;
5173;SDS011;2606;50.934;6.934;2022-08-19T13:05:43;14.70;;;10.60;;
5173;SDS011;2606;50.934;6.934;2022-08-19T13:08:12;9.27;;;6.90;;
5173;SDS011;2606;50.934;6.934;2022-08-19T13:10:38;9.13;;;6.17;;
5173;SDS011;2606;50.934;6.934;2022-08-19T13:13:04;7.13;;;6.20;;
5173;SDS011;2606;50.934;6.934;2022-08-19T13:15:33;10.80;;;6.40;;
5173;SDS011;2606;50.934;6.934;2022-08-19T13:18:00;9.10;;;6.03;;
5173;SDS011;2606;50.934;6.934;2022-08-19T13:20:26;11.97;;;6.50;;
5173;SDS011;2606;50.934;6.934;2022-08-19T13:22:52;6.57;;;5.83;;
5173;SDS011;2606;50.934;6.934;2022-08-19T13:25:18;8.20;;;5.20;;
5173;SDS011;2606;50.934;6.934;2022-08-19T13:27:46;8.83;;;5.60;;
5173;SDS011;2606;50.934;6.934;2022-08-19T13:30:13;9.30;;;6.37;;
5173;SDS011;2606;50.934;6.934;2022-08-19T13:32:59;7.33;;;5.00;;
5173;SDS011;2606;50.934;6.934;2022-08-19T13:35:40;7.53;;;5.50;;
5173;SDS011;2606;50.934;6.934;2022-08-19T13:38:08;7.97;;;5.23;;
5173;SDS011;2606;50.934;6.934;2022-08-19T13:40:35;6.80;;;5.70;;
5173;SDS011;2606;50.934;6.934;2022-08-19T13:43:01;12.10;;;6.07;;
5173;SDS011;2606;50.934;6.934;2022-08-19T13:45:28;10.63;;;5.60;;
5173;SDS011;2606;50.934;6.934;2022-08-19T13:47:57;7.00;;;5.60;;
5173;SDS011;2606;50.934;6.934;2022-08-19T13:50:25;8.83;;;5.60;;
5173;SDS011;2606;50.934;6.934;2022-08-19T13:52:53;11.50;;;5.60;;
5173;SDS011;2606;50.934;6.934;2022-08-19T13:55:20;13.53;;;4.90;;
5173;SDS011;2606;50.934;6.934;2022-08-19T13:57:50;9.33;;;5.20;;
5173;SDS011;2606;50.934;6.934;2022-08-19T14:00:20;9.47;;;4.50;;
5173;SDS011;2606;50.934;6.934;2022-08-19T14:02:47;6.80;;;5.53;;
5173;SDS011;2606;50.934;6.934;2022-08-19T14:05:18;7.30;;;5.30;;
5173;SDS011;2606;50.934;6.934;2022-08-19T14:07:44;22.93;;;12.60;;
5173;SDS011;2606;50.934;6.934;2022-08-19T14:10:10;15.37;;;7.83;;
5173;SDS011;2606;50.934;6.934;2022-08-19T14:12:37;7.60;;;4.70;;
5173;SDS011;2606;50.934;6.934;2022-08-19T14:15:04;7.30;;;5.10;;
5173;SDS011;2606;50.934;6.934;2022-08-19T14:17:31;5.90;;;4.60;;
5173;SDS011;2606;50.934;6.934;2022-08-19T14:20:00;8.53;;;4.90;;
5173;SDS011;2606;50.934;6.934;2022-08-19T14:22:29;9.63;;;5.00;;
5173;SDS011;2606;50.934;6.934;2022-08-19T14:24:56;7.90;;;4.50;;
5173;SDS011;2606;50.934;6.934;2022-08-19T14:27:24;10.10;;;4.30;;
5173;SDS011;2606;50.934;6.934;2022-08-19T14:29:51;5.93;;;4.83;;
5173;SDS011;2606;50.934;6.934;2022-08-19T14:32:17;8.13;;;5.30;;
5173;SDS011;2606;50.934;6.934;2022-08-19T14:34:43;6.70;;;5.40;;
5173;SDS011;2606;50.934;6.934;2022-08-19T14:37:10;5.50;;;4.17;;
5173;SDS011;2606;50.934;6.934;2022-08-19T14:39:40;9.13;;;4.93;;
5173;SDS011;2606;50.934;6.934;2022-08-19T14:42:07;8.10;;;4.50;;
5173;SDS011;2606;50.934;6.934;2022-08-19T14:44:33;6.80;;;4.80;;
5173;SDS011;2606;50.934;6.934;2022-08-19T14:46:59;7.10;;;4.70;;
5173;SDS011;2606;50.934;6.934;2022-08-19T14:49:25;8.53;;;4.70;;
5173;SDS011;2606;50.934;6.934;2022-08-19T14:51:50;5.90;;;4.23;;
5173;SDS011;2606;50.934;6.934;2022-08-19T14:54:16;5.80;;;3.97;;
5173;SDS011;2606;50.934;6.934;2022-08-19T14:56:41;7.97;;;4.70;;
5173;SDS011;2606;50.934;6.934;2022-08-19T14:59:08;5.70;;;4.40;;
5173;SDS011;2606;50.934;6.934;2022-08-19T15:01:33;7.23;;;3.90;;
5173;SDS011;2606;50.934;6.934;2022-08-19T15:03:59;6.37;;;4.20;;
5173;SDS011;2606;50.934;6.934;2022-08-19T15:06:25;6.00;;;3.67;;
5173;SDS011;2606;50.934;6.934;2022-08-19T15:08:52;7.30;;;4.60;;